createdAt,value
2023-02-01T00:01:10.753Z,1.20
2023-02-01T00:03:38.275Z,1.20
2023-02-01T00:06:05.831Z,1.20
2023-02-01T00:08:33.421Z,1.70
2023-02-01T00:11:06.332Z,1.70
2023-02-01T00:13:36.300Z,1.50
2023-02-01T00:16:13.318Z,1.30
2023-02-01T00:18:40.807Z,1.30
2023-02-01T00:21:08.193Z,1.60
2023-02-01T00:23:37.201Z,2.00
2023-02-01T00:26:07.138Z,1.90
2023-02-01T00:28:35.100Z,1.60
2023-02-01T00:31:05.372Z,1.50
2023-02-01T00:33:33.796Z,1.30
2023-02-01T00:36:04.400Z,1.50
2023-02-01T00:38:33.036Z,1.70
2023-02-01T00:41:08.632Z,1.50
2023-02-01T00:43:36.167Z,1.40
2023-02-01T00:46:04.669Z,1.20
2023-02-01T00:48:32.401Z,1.20
2023-02-01T00:51:13.409Z,1.00
2023-02-01T00:53:41.423Z,0.90
2023-02-01T00:56:09.448Z,0.90
2023-02-01T00:58:37.347Z,0.80
2023-02-01T01:01:09.123Z,0.70
2023-02-01T01:03:39.469Z,0.80
2023-02-01T01:06:17.695Z,0.70
2023-02-01T01:08:45.426Z,0.60
2023-02-01T01:11:17.005Z,0.70
2023-02-01T01:13:47.529Z,0.70
2023-02-01T01:16:16.035Z,0.90
2023-02-01T01:18:43.868Z,0.90
2023-02-01T01:21:14.783Z,0.90
2023-02-01T01:23:42.627Z,0.90
2023-02-01T01:26:13.520Z,0.70
2023-02-01T01:28:41.048Z,0.60
2023-02-01T01:31:12.612Z,0.60
2023-02-01T01:33:40.356Z,0.60
2023-02-01T01:36:12.807Z,0.60
2023-02-01T01:38:40.924Z,0.70
2023-02-01T01:41:10.320Z,0.60
2023-02-01T01:43:58.573Z,0.60
2023-02-01T01:46:33.971Z,0.50
2023-02-01T01:49:25.055Z,0.40
2023-02-01T01:51:56.833Z,0.20
2023-02-01T01:54:27.156Z,0.30
2023-02-01T01:57:07.478Z,0.20
2023-02-01T01:59:38.052Z,0.30
2023-02-01T02:02:06.112Z,0.40
2023-02-01T02:04:35.265Z,0.40
2023-02-01T02:07:28.003Z,0.10
2023-02-01T02:10:00.864Z,0.10
2023-02-01T02:12:29.616Z,0.00
2023-02-01T02:14:57.499Z,0.20
2023-02-01T02:17:58.217Z,0.20
2023-02-01T02:21:09.998Z,0.00
2023-02-01T02:24:02.010Z,-0.10
2023-02-01T02:26:37.145Z,-0.10
2023-02-01T02:29:25.702Z,0.00
2023-02-01T02:32:05.031Z,0.00
2023-02-01T02:34:47.651Z,0.20
2023-02-01T02:37:34.715Z,0.10
2023-02-01T02:40:07.646Z,0.30
2023-02-01T02:43:13.573Z,0.70
2023-02-01T02:46:07.446Z,0.50
2023-02-01T02:48:43.639Z,0.30
2023-02-01T02:51:44.255Z,0.00
2023-02-01T02:54:33.808Z,0.00
2023-02-01T02:57:23.599Z,0.00
2023-02-01T03:00:10.605Z,0.00
2023-02-01T03:02:57.124Z,-0.10
2023-02-01T03:05:24.785Z,-0.20
2023-02-01T03:08:02.894Z,-0.10
2023-02-01T03:10:50.959Z,-0.20
2023-02-01T03:13:43.012Z,-0.20
2023-02-01T03:16:32.488Z,-0.10
2023-02-01T03:19:50.540Z,-0.10
2023-02-01T03:22:23.060Z,-0.10
2023-02-01T03:25:19.496Z,-0.20
2023-02-01T03:28:01.058Z,-0.20
2023-02-01T03:30:34.420Z,-0.20
2023-02-01T03:33:08.354Z,-0.20
2023-02-01T03:35:58.864Z,-0.30
2023-02-01T03:38:35.516Z,-0.30
2023-02-01T03:41:41.430Z,-0.20
2023-02-01T03:44:17.723Z,-0.30
2023-02-01T03:47:06.042Z,-0.20
2023-02-01T03:49:41.599Z,-0.20
2023-02-01T03:52:15.556Z,-0.10
2023-02-01T03:54:45.949Z,-0.30
2023-02-01T03:57:17.970Z,-0.30
2023-02-01T03:59:46.674Z,-0.30
2023-02-01T04:02:14.487Z,-0.40
2023-02-01T04:04:42.145Z,-0.40
2023-02-01T04:07:10.166Z,-0.40
2023-02-01T04:09:37.697Z,-0.40
2023-02-01T04:12:05.461Z,-0.40
2023-02-01T04:14:32.900Z,-0.40
2023-02-01T04:17:00.387Z,-0.40
2023-02-01T04:19:27.860Z,0.10
2023-02-01T04:21:55.342Z,0.80
2023-02-01T04:24:22.869Z,1.10
2023-02-01T04:26:50.453Z,0.80
2023-02-01T04:29:17.988Z,0.70
2023-02-01T04:31:45.468Z,0.40
2023-02-01T04:34:13.162Z,0.80
2023-02-01T04:36:40.666Z,0.60
2023-02-01T04:39:09.726Z,0.30
2023-02-01T04:41:37.392Z,0.00
2023-02-01T04:44:05.074Z,-0.20
2023-02-01T04:46:32.547Z,-0.20
2023-02-01T04:49:00.171Z,-0.20
2023-02-01T04:51:27.665Z,-0.30
2023-02-01T04:53:56.853Z,-0.30
2023-02-01T04:56:24.327Z,-0.50
2023-02-01T04:58:51.751Z,-0.50
2023-02-01T05:01:19.314Z,-0.50
2023-02-01T05:03:46.941Z,-0.40
2023-02-01T05:06:14.419Z,-0.30
2023-02-01T05:08:41.839Z,-0.40
2023-02-01T05:11:29.318Z,-0.60
2023-02-01T05:13:56.952Z,-0.40
2023-02-01T05:16:24.737Z,-0.40
2023-02-01T05:18:52.511Z,-0.30
2023-02-01T05:21:20.248Z,0.00
2023-02-01T05:24:06.247Z,0.30
2023-02-01T05:26:34.715Z,0.40
2023-02-01T05:29:02.272Z,0.80
2023-02-01T05:31:30.166Z,0.80
2023-02-01T05:33:57.769Z,0.40
2023-02-01T05:36:25.506Z,-0.10
2023-02-01T05:38:52.986Z,-0.30
2023-02-01T05:41:20.502Z,-0.40
2023-02-01T05:43:47.950Z,-0.40
2023-02-01T05:46:15.757Z,-0.40
2023-02-01T05:48:43.950Z,-0.60
2023-02-01T05:51:12.363Z,-0.60
2023-02-01T05:53:40.037Z,-0.60
2023-02-01T05:56:08.069Z,-0.50
2023-02-01T05:58:35.582Z,-0.40
2023-02-01T06:01:04.071Z,-0.30
2023-02-01T06:03:31.754Z,0.40
2023-02-01T06:05:59.345Z,0.20
2023-02-01T06:08:26.846Z,-0.20
2023-02-01T06:11:02.838Z,0.10
2023-02-01T06:13:32.136Z,0.80
2023-02-01T06:16:06.919Z,0.70
2023-02-01T06:18:35.854Z,0.90
2023-02-01T06:21:03.969Z,1.30
2023-02-01T06:23:31.870Z,1.20
2023-02-01T06:26:05.334Z,0.50
2023-02-01T06:28:33.887Z,0.20
2023-02-01T06:31:07.704Z,0.10
2023-02-01T06:33:36.472Z,-0.20
2023-02-01T06:36:07.528Z,-0.40
2023-02-01T06:38:36.172Z,-0.40
2023-02-01T06:41:04.895Z,-0.50
2023-02-01T06:43:33.673Z,-0.50
2023-02-01T06:46:06.340Z,-0.40
2023-02-01T06:48:34.482Z,-0.20
2023-02-01T06:51:02.307Z,0.60
2023-02-01T06:53:29.848Z,1.20
2023-02-01T06:56:02.514Z,0.90
2023-02-01T06:58:34.487Z,0.70
2023-02-01T07:01:10.018Z,0.90
2023-02-01T07:03:38.360Z,1.40
2023-02-01T07:06:06.981Z,1.50
2023-02-01T07:08:37.322Z,1.10
2023-02-01T07:11:10.311Z,0.70
2023-02-01T07:13:38.483Z,0.50
2023-02-01T07:16:10.107Z,0.70
2023-02-01T07:18:38.003Z,1.30
2023-02-01T07:21:05.729Z,1.50
2023-02-01T07:23:33.398Z,1.90
2023-02-01T07:26:04.247Z,2.10
2023-02-01T07:28:34.388Z,2.40
2023-02-01T07:31:06.878Z,2.20
2023-02-01T07:33:35.219Z,1.80
2023-02-01T07:36:05.397Z,1.50
2023-02-01T07:38:32.960Z,1.40
2023-02-01T07:41:02.024Z,1.50
2023-02-01T07:43:30.217Z,1.40
2023-02-01T07:45:58.459Z,1.00
2023-02-01T07:48:27.083Z,1.20
2023-02-01T07:51:03.117Z,1.60
2023-02-01T07:53:32.276Z,1.70
2023-02-01T07:56:00.058Z,1.60
2023-02-01T07:58:28.863Z,1.50
2023-02-01T08:01:15.922Z,1.70
2023-02-01T08:03:43.510Z,1.80
2023-02-01T08:06:11.361Z,1.80
2023-02-01T08:08:39.176Z,2.00
2023-02-01T08:11:07.856Z,2.30
2023-02-01T08:13:36.358Z,2.50
2023-02-01T08:16:06.422Z,2.50
2023-02-01T08:18:34.533Z,3.10
2023-02-01T08:21:14.650Z,3.50
2023-02-01T08:23:43.413Z,3.70
2023-02-01T08:26:15.860Z,3.90
2023-02-01T08:28:47.302Z,4.20
2023-02-01T08:31:16.762Z,4.40
2023-02-01T08:33:48.507Z,4.30
2023-02-01T08:36:15.950Z,4.40
2023-02-01T08:38:43.451Z,4.40
2023-02-01T08:41:16.200Z,4.40
2023-02-01T08:43:43.703Z,4.60
2023-02-01T08:46:12.341Z,4.70
2023-02-01T08:48:40.321Z,4.80
2023-02-01T08:51:11.103Z,5.00
2023-02-01T08:53:41.219Z,5.10
2023-02-01T08:56:09.826Z,5.20
2023-02-01T08:58:37.616Z,5.10
2023-02-01T09:01:10.166Z,5.20
2023-02-01T09:03:38.101Z,5.20
2023-02-01T09:06:08.482Z,5.10
2023-02-01T09:08:37.699Z,5.20
2023-02-01T09:11:08.338Z,5.30
2023-02-01T09:13:36.613Z,5.50
2023-02-01T09:16:05.166Z,5.40
2023-02-01T09:18:32.783Z,5.50
2023-02-01T09:21:02.323Z,5.70
2023-02-01T09:23:29.993Z,5.80
2023-02-01T09:26:04.647Z,5.70
2023-02-01T09:28:32.407Z,5.80
2023-02-01T09:31:01.536Z,5.90
2023-02-01T09:33:30.122Z,6.00
2023-02-01T09:36:02.806Z,5.90
2023-02-01T09:38:31.068Z,6.10
2023-02-01T09:41:00.142Z,6.00
2023-02-01T09:43:40.873Z,6.20
2023-02-01T09:46:11.143Z,6.20
2023-02-01T09:48:41.851Z,6.30
2023-02-01T09:51:17.995Z,6.40
2023-02-01T09:54:08.269Z,6.40
2023-02-01T09:56:43.253Z,6.50
2023-02-01T09:59:47.262Z,6.60
2023-02-01T10:02:29.196Z,6.60
2023-02-01T10:05:00.523Z,6.70
2023-02-01T10:07:28.003Z,6.70
2023-02-01T10:10:05.935Z,6.80
2023-02-01T10:13:03.584Z,6.70
2023-02-01T10:16:05.441Z,6.80
2023-02-01T10:19:04.049Z,6.80
2023-02-01T10:21:59.046Z,6.80
2023-02-01T10:24:42.426Z,6.80
2023-02-01T10:27:15.756Z,6.90
2023-02-01T10:29:52.688Z,7.00
2023-02-01T10:32:29.673Z,6.80
2023-02-01T10:35:16.713Z,6.90
2023-02-01T10:37:48.967Z,7.00
2023-02-01T10:40:22.893Z,7.00
2023-02-01T10:42:53.199Z,7.00
2023-02-01T10:45:23.835Z,7.20
2023-02-01T10:47:53.312Z,7.20
2023-02-01T10:50:47.488Z,7.20
2023-02-01T10:53:25.075Z,7.20
2023-02-01T10:55:56.748Z,7.30
2023-02-01T10:58:30.374Z,7.40
2023-02-01T11:01:07.275Z,7.40
2023-02-01T11:03:45.051Z,7.50
2023-02-01T11:06:26.854Z,7.60
2023-02-01T11:09:09.521Z,7.60
2023-02-01T11:11:58.399Z,7.70
2023-02-01T11:14:25.895Z,7.70
2023-02-01T11:17:00.965Z,7.80
2023-02-01T11:19:29.557Z,7.70
2023-02-01T11:22:01.975Z,7.80
2023-02-01T11:24:36.529Z,7.90
2023-02-01T11:27:07.192Z,7.90
2023-02-01T11:29:41.933Z,8.00
2023-02-01T11:32:11.270Z,8.10
2023-02-01T11:34:46.881Z,8.20
2023-02-01T11:37:24.912Z,8.10
2023-02-01T11:40:27.599Z,8.20
2023-02-01T11:42:56.649Z,8.30
2023-02-01T11:45:38.632Z,8.40
2023-02-01T11:48:26.203Z,8.50
2023-02-01T11:51:12.336Z,8.50
2023-02-01T11:54:17.419Z,8.50
2023-02-01T11:57:06.052Z,8.50
2023-02-01T11:59:56.350Z,8.50
2023-02-01T12:02:46.924Z,8.50
2023-02-01T12:05:42.926Z,8.60
2023-02-01T12:08:22.586Z,8.60
2023-02-01T12:10:58.953Z,8.60
2023-02-01T12:13:54.177Z,8.60
2023-02-01T12:17:14.948Z,8.70
2023-02-01T12:20:01.077Z,8.60
2023-02-01T12:22:59.740Z,8.60
2023-02-01T12:25:47.331Z,8.70
2023-02-01T12:28:25.702Z,8.70
2023-02-01T12:31:06.162Z,8.70
2023-02-01T12:33:52.472Z,8.70
2023-02-01T12:36:41.546Z,8.80
2023-02-01T12:39:24.668Z,8.80
2023-02-01T12:41:58.400Z,8.90
2023-02-01T12:44:32.419Z,8.80
2023-02-01T12:47:09.212Z,8.90
2023-02-01T12:49:47.537Z,8.90
2023-02-01T12:52:45.554Z,9.00
2023-02-01T12:55:36.522Z,9.00
2023-02-01T12:58:45.318Z,9.00
2023-02-01T13:01:21.898Z,9.10
2023-02-01T13:03:58.702Z,9.20
2023-02-01T13:06:32.289Z,9.10
2023-02-01T13:09:29.023Z,9.10
2023-02-01T13:12:02.241Z,9.20
2023-02-01T13:14:56.156Z,9.10
2023-02-01T13:17:26.184Z,9.20
2023-02-01T13:20:16.554Z,9.20
2023-02-01T13:22:52.869Z,9.20
2023-02-01T13:25:38.508Z,9.30
2023-02-01T13:28:13.791Z,9.40
2023-02-01T13:30:58.456Z,9.40
2023-02-01T13:33:56.275Z,9.40
2023-02-01T13:36:53.590Z,9.40
2023-02-01T13:39:38.942Z,9.40
2023-02-01T13:42:13.068Z,9.40
2023-02-01T13:44:45.164Z,9.40
2023-02-01T13:47:39.501Z,9.40
2023-02-01T13:50:25.796Z,9.40
2023-02-01T13:52:57.740Z,9.50
2023-02-01T13:55:37.280Z,9.50
2023-02-01T13:58:14.556Z,9.50
2023-02-01T14:00:46.658Z,9.40
2023-02-01T14:03:20.265Z,9.50
2023-02-01T14:05:48.106Z,9.50
2023-02-01T14:08:24.151Z,9.60
2023-02-01T14:10:59.248Z,9.60
2023-02-01T14:13:37.193Z,9.60
2023-02-01T14:16:04.741Z,9.70
2023-02-01T14:18:38.389Z,9.70
2023-02-01T14:21:31.027Z,9.80
2023-02-01T14:24:00.388Z,9.80
2023-02-01T14:26:45.297Z,9.90
2023-02-01T14:29:26.415Z,9.90
2023-02-01T14:32:19.025Z,9.90
2023-02-01T14:34:49.713Z,9.90
2023-02-01T14:37:21.901Z,9.90
2023-02-01T14:40:11.993Z,10.00
2023-02-01T14:42:48.448Z,9.90
2023-02-01T14:45:25.443Z,9.90
2023-02-01T14:48:08.566Z,9.90
2023-02-01T14:50:43.661Z,9.90
2023-02-01T14:53:11.307Z,9.90
2023-02-01T14:55:52.325Z,9.70
2023-02-01T14:58:41.641Z,9.80
2023-02-01T15:01:32.007Z,9.80
2023-02-01T15:04:17.903Z,9.70
2023-02-01T15:07:08.362Z,9.60
2023-02-01T15:09:48.611Z,9.60
2023-02-01T15:12:28.715Z,9.70
2023-02-01T15:15:25.393Z,9.50
2023-02-01T15:18:03.066Z,9.50
2023-02-01T15:20:32.964Z,9.50
2023-02-01T15:23:08.725Z,9.50
2023-02-01T15:25:40.295Z,9.50
2023-02-01T15:28:14.843Z,9.50
2023-02-01T15:30:57.553Z,9.40
2023-02-01T15:33:27.243Z,9.30
2023-02-01T15:36:06.974Z,9.30
2023-02-01T15:38:38.369Z,9.20
2023-02-01T15:41:09.051Z,9.10
2023-02-01T15:43:47.509Z,9.00
2023-02-01T15:46:18.802Z,9.00
2023-02-01T15:48:50.079Z,8.80
2023-02-01T15:51:24.012Z,8.80
2023-02-01T15:53:56.600Z,8.60
2023-02-01T15:56:30.662Z,8.30
2023-02-01T15:59:03.534Z,8.10
2023-02-01T16:01:31.594Z,8.10
2023-02-01T16:04:24.742Z,8.00
2023-02-01T16:06:56.356Z,8.10
2023-02-01T16:09:35.948Z,8.10
2023-02-01T16:12:05.048Z,8.10
2023-02-01T16:14:33.426Z,7.70
2023-02-01T16:17:00.983Z,7.30
2023-02-01T16:19:29.457Z,7.20
2023-02-01T16:21:57.625Z,7.20
2023-02-01T16:24:27.066Z,7.10
2023-02-01T16:26:54.851Z,7.10
2023-02-01T16:29:22.704Z,7.10
2023-02-01T16:31:50.873Z,7.10
2023-02-01T16:34:19.209Z,6.70
2023-02-01T16:36:56.654Z,6.30
2023-02-01T16:39:25.230Z,6.10
2023-02-01T16:41:52.654Z,5.80
2023-02-01T16:44:20.525Z,5.60
2023-02-01T16:46:49.575Z,5.50
2023-02-01T16:49:26.658Z,5.80
2023-02-01T16:51:58.612Z,6.30
2023-02-01T16:54:27.608Z,6.50
2023-02-01T16:56:55.321Z,6.40
2023-02-01T16:59:22.786Z,6.00
2023-02-01T17:01:50.325Z,5.60
2023-02-01T17:04:18.514Z,5.90
2023-02-01T17:06:48.328Z,5.90
2023-02-01T17:09:15.999Z,6.00
2023-02-01T17:11:43.578Z,5.80
2023-02-01T17:14:19.987Z,5.70
2023-02-01T17:16:50.201Z,5.50
2023-02-01T17:19:24.283Z,5.30
2023-02-01T17:21:56.576Z,5.10
2023-02-01T17:24:35.777Z,5.20
2023-02-01T17:27:06.777Z,5.40
2023-02-01T17:29:34.224Z,5.10
2023-02-01T17:32:04.376Z,5.00
2023-02-01T17:34:33.093Z,5.10
2023-02-01T17:37:00.534Z,5.30
2023-02-01T17:39:46.699Z,5.00
2023-02-01T17:42:14.136Z,4.90
2023-02-01T17:44:41.603Z,4.80
2023-02-01T17:47:09.086Z,5.00
2023-02-01T17:49:38.930Z,4.90
2023-02-01T17:52:09.201Z,4.60
2023-02-01T17:54:37.697Z,4.40
2023-02-01T17:57:14.755Z,4.40
2023-02-01T17:59:42.536Z,4.70
2023-02-01T18:02:24.279Z,5.10
2023-02-01T18:04:52.653Z,5.60
2023-02-01T18:07:20.224Z,6.10
2023-02-01T18:09:47.743Z,6.30
2023-02-01T18:12:23.685Z,6.00
2023-02-01T18:14:51.384Z,5.30
2023-02-01T18:17:18.939Z,4.80
2023-02-01T18:19:46.460Z,4.60
2023-02-01T18:22:17.920Z,4.20
2023-02-01T18:24:45.464Z,4.10
2023-02-01T18:27:13.021Z,4.10
2023-02-01T18:29:40.535Z,4.10
2023-02-01T18:32:10.703Z,3.70
2023-02-01T18:34:38.212Z,3.80
2023-02-01T18:37:05.708Z,3.60
2023-02-01T18:39:33.227Z,3.50
2023-02-01T18:42:00.696Z,3.50
2023-02-01T18:44:28.186Z,3.80
2023-02-01T18:46:55.647Z,3.70
2023-02-01T18:49:23.097Z,3.70
2023-02-01T18:51:52.142Z,3.70
2023-02-01T18:54:20.111Z,3.50
2023-02-01T18:56:47.658Z,3.40
2023-02-01T18:59:17.378Z,3.50
2023-02-01T19:01:45.069Z,3.40
2023-02-01T19:04:20.331Z,3.30
2023-02-01T19:06:53.231Z,3.20
2023-02-01T19:09:20.741Z,3.50
2023-02-01T19:11:48.311Z,4.10
2023-02-01T19:14:15.781Z,4.70
2023-02-01T19:16:43.306Z,4.70
2023-02-01T19:19:10.731Z,4.70
2023-02-01T19:21:38.205Z,4.90
2023-02-01T19:24:06.076Z,5.10
2023-02-01T19:26:33.559Z,5.30
2023-02-01T19:29:01.629Z,5.40
2023-02-01T19:31:29.268Z,5.40
2023-02-01T19:33:56.910Z,5.30
2023-02-01T19:36:26.789Z,5.30
2023-02-01T19:38:54.262Z,5.40
2023-02-01T19:41:21.720Z,5.40
2023-02-01T19:43:49.141Z,5.40
2023-02-01T19:46:16.621Z,5.50
2023-02-01T19:48:44.170Z,5.60
2023-02-01T19:51:12.802Z,5.60
2023-02-01T19:53:40.300Z,5.30
2023-02-01T19:56:08.030Z,5.10
2023-02-01T19:58:35.532Z,4.80
2023-02-01T20:01:02.692Z,4.80
2023-02-01T20:03:30.185Z,4.90
2023-02-01T20:05:59.007Z,5.10
2023-02-01T20:08:26.521Z,4.90
2023-02-01T20:10:54.039Z,5.00
2023-02-01T20:13:21.486Z,5.10
2023-02-01T20:15:49.029Z,4.80
2023-02-01T20:18:16.563Z,4.90
2023-02-01T20:20:44.068Z,4.90
2023-02-01T20:23:11.626Z,4.60
2023-02-01T20:25:41.290Z,4.20
2023-02-01T20:28:08.953Z,4.30
2023-02-01T20:30:36.500Z,4.20
2023-02-01T20:33:04.059Z,4.10
2023-02-01T20:35:31.715Z,4.40
2023-02-01T20:38:01.798Z,4.20
2023-02-01T20:40:30.940Z,3.90
2023-02-01T20:42:58.827Z,3.40
2023-02-01T20:45:27.211Z,3.60
2023-02-01T20:47:54.784Z,3.70
2023-02-01T20:50:22.243Z,3.40
2023-02-01T20:52:49.772Z,3.20
2023-02-01T20:55:17.390Z,3.10
2023-02-01T20:57:44.949Z,2.90
2023-02-01T21:00:13.148Z,3.30
2023-02-01T21:02:40.748Z,3.30
2023-02-01T21:05:09.081Z,2.90
2023-02-01T21:07:37.894Z,2.80
2023-02-01T21:10:06.437Z,2.90
2023-02-01T21:12:34.024Z,2.60
2023-02-01T21:15:01.560Z,2.50
2023-02-01T21:17:31.627Z,2.30
2023-02-01T21:19:59.578Z,2.20
2023-02-01T21:22:27.043Z,2.20
2023-02-01T21:24:54.636Z,2.10
2023-02-01T21:27:22.227Z,2.20
2023-02-01T21:29:49.704Z,2.20
2023-02-01T21:32:17.311Z,2.30
2023-02-01T21:34:44.800Z,2.40
2023-02-01T21:37:12.272Z,2.20
2023-02-01T21:39:39.623Z,2.30
2023-02-01T21:42:18.251Z,2.40
2023-02-01T21:44:47.535Z,2.30
2023-02-01T21:47:17.409Z,2.10
2023-02-01T21:49:46.749Z,2.20
2023-02-01T21:52:18.050Z,2.50
2023-02-01T21:54:45.736Z,2.70
2023-02-01T21:57:13.345Z,2.10
2023-02-01T21:59:43.518Z,1.90
2023-02-01T22:02:16.200Z,1.90
2023-02-01T22:04:44.378Z,2.00
2023-02-01T22:07:12.357Z,2.20
2023-02-01T22:09:40.402Z,1.90
2023-02-01T22:12:09.844Z,1.80
2023-02-01T22:14:38.674Z,2.10
2023-02-01T22:17:06.555Z,2.30
2023-02-01T22:19:34.058Z,2.30
2023-02-01T22:22:01.679Z,2.60
2023-02-01T22:24:29.222Z,2.60
2023-02-01T22:26:56.660Z,2.10
2023-02-01T22:29:43.031Z,1.80
2023-02-01T22:32:13.216Z,1.70
2023-02-01T22:34:41.293Z,1.70
2023-02-01T22:37:09.837Z,1.60
2023-02-01T22:39:38.552Z,1.50
2023-02-01T22:42:06.428Z,1.60
2023-02-01T22:44:33.879Z,1.40
2023-02-01T22:47:01.399Z,1.40
2023-02-01T22:49:28.925Z,1.30
2023-02-01T22:51:56.574Z,1.30
2023-02-01T22:54:24.018Z,1.10
2023-02-01T22:56:51.512Z,1.10
2023-02-01T22:59:19.096Z,1.30
2023-02-01T23:01:46.558Z,1.70
2023-02-01T23:04:15.136Z,1.80
2023-02-01T23:06:42.652Z,2.00
2023-02-01T23:09:22.041Z,2.30
2023-02-01T23:11:49.990Z,2.10
2023-02-01T23:14:18.063Z,1.60
2023-02-01T23:16:46.944Z,1.50
2023-02-01T23:19:14.635Z,1.30
2023-02-01T23:21:42.573Z,1.70
2023-02-01T23:24:11.232Z,1.80
2023-02-01T23:26:39.041Z,2.00
2023-02-01T23:29:06.531Z,2.40
2023-02-01T23:31:35.797Z,2.80
2023-02-01T23:34:04.255Z,2.40
2023-02-01T23:36:33.879Z,1.60
2023-02-01T23:39:01.801Z,1.60
2023-02-01T23:41:30.187Z,1.40
2023-02-01T23:43:58.004Z,1.40
2023-02-01T23:46:34.035Z,1.40
2023-02-01T23:49:03.174Z,1.00
2023-02-01T23:51:30.961Z,1.00
2023-02-01T23:53:58.708Z,1.20
2023-02-01T23:56:33.311Z,1.30
2023-02-01T23:59:02.979Z,1.10
